createdAt,value
2023-02-09T00:01:45.120Z,58.30
2023-02-09T00:04:11.836Z,58.40
2023-02-09T00:06:38.576Z,58.40
2023-02-09T00:09:05.323Z,58.40
2023-02-09T00:11:51.557Z,58.40
2023-02-09T00:14:21.912Z,58.50
2023-02-09T00:16:49.934Z,58.50
2023-02-09T00:19:17.621Z,58.60
2023-02-09T00:21:44.962Z,58.60
2023-02-09T00:24:16.979Z,58.60
2023-02-09T00:26:47.013Z,58.60
2023-02-09T00:29:14.262Z,58.60
2023-02-09T00:31:41.084Z,58.70
2023-02-09T00:34:08.141Z,58.80
2023-02-09T00:36:34.962Z,58.80
2023-02-09T00:39:02.001Z,58.90
2023-02-09T00:41:47.580Z,58.80
2023-02-09T00:44:14.561Z,58.80
2023-02-09T00:46:41.511Z,58.90
2023-02-09T00:49:08.270Z,58.90
2023-02-09T00:51:35.088Z,58.90
2023-02-09T00:54:01.928Z,59.00
2023-02-09T00:56:28.750Z,59.00
2023-02-09T00:58:55.602Z,58.90
2023-02-09T01:01:22.503Z,59.00
2023-02-09T01:03:49.287Z,59.00
2023-02-09T01:06:16.141Z,59.00
2023-02-09T01:08:43.006Z,59.10
2023-02-09T01:11:15.408Z,59.10
2023-02-09T01:13:50.309Z,59.00
2023-02-09T01:16:18.519Z,59.10
2023-02-09T01:18:45.813Z,59.10
2023-02-09T01:21:15.352Z,59.00
2023-02-09T01:23:42.615Z,59.00
2023-02-09T01:26:10.976Z,59.00
2023-02-09T01:28:37.865Z,59.00
2023-02-09T01:31:06.359Z,59.00
2023-02-09T01:33:33.578Z,59.00
2023-02-09T01:36:04.621Z,59.00
2023-02-09T01:38:31.519Z,58.90
2023-02-09T01:40:58.290Z,58.90
2023-02-09T01:43:25.170Z,59.00
2023-02-09T01:45:56.402Z,59.00
2023-02-09T01:48:31.925Z,58.90
2023-02-09T01:51:01.021Z,59.00
2023-02-09T01:53:28.182Z,59.00
2023-02-09T01:56:09.284Z,59.00
2023-02-09T01:58:36.168Z,58.90
2023-02-09T02:01:03.240Z,58.80
2023-02-09T02:03:33.554Z,59.00
2023-02-09T02:06:07.314Z,58.90
2023-02-09T02:08:42.059Z,58.90
2023-02-09T02:11:09.672Z,58.90
2023-02-09T02:13:36.430Z,58.90
2023-02-09T02:16:21.524Z,58.80
2023-02-09T02:19:16.235Z,58.80
2023-02-09T02:22:20.964Z,58.90
2023-02-09T02:25:25.188Z,58.80
2023-02-09T02:28:40.460Z,58.80
2023-02-09T02:31:51.933Z,58.80
2023-02-09T02:34:56.290Z,58.80
2023-02-09T02:37:34.684Z,58.70
2023-02-09T02:40:09.481Z,58.70
2023-02-09T02:42:49.808Z,58.70
2023-02-09T02:45:35.520Z,58.80
2023-02-09T02:48:34.950Z,58.80
2023-02-09T02:51:04.778Z,58.70
2023-02-09T02:53:35.287Z,58.80
2023-02-09T02:56:14.223Z,58.70
2023-02-09T02:58:45.260Z,58.70
2023-02-09T03:01:15.355Z,58.70
2023-02-09T03:03:44.878Z,58.80
2023-02-09T03:06:13.723Z,59.40
2023-02-09T03:09:07.124Z,58.70
2023-02-09T03:11:42.794Z,58.80
2023-02-09T03:14:19.040Z,58.70
2023-02-09T03:16:52.743Z,58.60
2023-02-09T03:19:38.846Z,58.80
2023-02-09T03:22:29.062Z,58.70
2023-02-09T03:25:10.243Z,58.70
2023-02-09T03:27:49.155Z,58.70
2023-02-09T03:30:18.216Z,58.70
2023-02-09T03:32:46.411Z,58.70
2023-02-09T03:35:17.229Z,58.80
2023-02-09T03:37:44.485Z,58.80
2023-02-09T03:40:11.654Z,58.80
2023-02-09T03:42:38.349Z,58.80
2023-02-09T03:45:08.005Z,58.80
2023-02-09T03:47:37.742Z,58.80
2023-02-09T03:50:09.636Z,58.80
2023-02-09T03:52:36.419Z,58.80
2023-02-09T03:55:03.286Z,58.90
2023-02-09T03:57:30.027Z,58.90
2023-02-09T03:59:56.800Z,58.90
2023-02-09T04:02:23.575Z,58.90
2023-02-09T04:04:50.271Z,58.90
2023-02-09T04:07:18.380Z,59.00
2023-02-09T04:09:45.197Z,59.00
2023-02-09T04:12:11.953Z,59.00
2023-02-09T04:14:38.704Z,59.10
2023-02-09T04:17:05.542Z,59.10
2023-02-09T04:19:32.354Z,59.00
2023-02-09T04:21:59.261Z,59.10
2023-02-09T04:24:26.143Z,59.10
2023-02-09T04:26:52.915Z,59.10
2023-02-09T04:29:19.769Z,59.20
2023-02-09T04:31:46.613Z,59.20
2023-02-09T04:34:14.547Z,59.00
2023-02-09T04:36:41.474Z,59.00
2023-02-09T04:39:09.306Z,59.80
2023-02-09T04:41:36.037Z,59.10
2023-02-09T04:44:02.955Z,59.20
2023-02-09T04:46:29.753Z,59.20
2023-02-09T04:48:56.544Z,59.20
2023-02-09T04:51:23.458Z,59.20
2023-02-09T04:53:50.232Z,59.20
2023-02-09T04:56:17.679Z,59.20
2023-02-09T04:59:03.461Z,59.30
2023-02-09T05:01:30.736Z,59.30
2023-02-09T05:03:57.576Z,59.30
2023-02-09T05:06:24.486Z,59.40
2023-02-09T05:08:51.323Z,59.40
2023-02-09T05:11:18.273Z,60.00
2023-02-09T05:13:45.264Z,59.40
2023-02-09T05:16:15.395Z,59.40
2023-02-09T05:18:42.236Z,59.40
2023-02-09T05:21:09.336Z,59.40
2023-02-09T05:23:36.294Z,59.50
2023-02-09T05:26:03.846Z,59.40
2023-02-09T05:28:30.598Z,59.40
2023-02-09T05:30:57.431Z,59.50
2023-02-09T05:33:25.840Z,59.40
2023-02-09T05:35:55.704Z,59.40
2023-02-09T05:38:25.615Z,59.50
2023-02-09T05:40:54.829Z,59.50
2023-02-09T05:43:21.919Z,59.50
2023-02-09T05:45:48.722Z,59.50
2023-02-09T05:48:18.648Z,59.50
2023-02-09T05:50:45.847Z,59.50
2023-02-09T05:53:14.438Z,59.50
2023-02-09T05:55:48.485Z,59.50
2023-02-09T05:58:15.215Z,59.50
2023-02-09T06:00:42.032Z,59.60
2023-02-09T06:03:08.874Z,59.60
2023-02-09T06:05:35.626Z,59.70
2023-02-09T06:08:02.472Z,59.50
2023-02-09T06:10:29.301Z,59.60
2023-02-09T06:12:56.140Z,59.60
2023-02-09T06:15:23.189Z,59.70
2023-02-09T06:17:49.966Z,59.70
2023-02-09T06:20:16.884Z,59.60
2023-02-09T06:22:43.653Z,59.60
2023-02-09T06:25:10.479Z,59.60
2023-02-09T06:27:37.441Z,59.80
2023-02-09T06:30:05.701Z,59.80
2023-02-09T06:32:32.550Z,59.70
2023-02-09T06:35:02.239Z,59.60
2023-02-09T06:37:29.028Z,59.70
2023-02-09T06:39:55.799Z,60.50
2023-02-09T06:42:22.905Z,59.70
2023-02-09T06:44:49.622Z,59.70
2023-02-09T06:47:16.459Z,59.70
2023-02-09T06:49:43.279Z,59.80
2023-02-09T06:52:10.128Z,59.80
2023-02-09T06:54:36.854Z,59.80
2023-02-09T06:57:06.920Z,59.90
2023-02-09T06:59:33.734Z,60.00
2023-02-09T07:02:00.536Z,60.00
2023-02-09T07:04:27.356Z,59.90
2023-02-09T07:06:54.170Z,59.90
2023-02-09T07:09:21.042Z,59.90
2023-02-09T07:11:47.789Z,59.90
2023-02-09T07:14:14.567Z,59.90
2023-02-09T07:16:41.338Z,60.00
2023-02-09T07:19:08.151Z,60.00
2023-02-09T07:21:35.042Z,59.90
2023-02-09T07:24:01.859Z,60.00
2023-02-09T07:26:28.841Z,60.20
2023-02-09T07:28:55.660Z,60.00
2023-02-09T07:31:22.606Z,60.10
2023-02-09T07:33:49.465Z,60.20
2023-02-09T07:36:17.232Z,60.10
2023-02-09T07:38:44.317Z,60.10
2023-02-09T07:41:29.538Z,60.10
2023-02-09T07:43:56.946Z,60.20
2023-02-09T07:46:25.569Z,60.10
2023-02-09T07:48:52.441Z,60.20
2023-02-09T07:51:25.320Z,60.20
2023-02-09T07:53:57.080Z,60.20
2023-02-09T07:56:24.522Z,60.20
2023-02-09T07:58:51.782Z,60.20
2023-02-09T08:01:19.766Z,60.20
2023-02-09T08:03:48.629Z,60.20
2023-02-09T08:06:24.276Z,60.40
2023-02-09T08:08:53.214Z,60.30
2023-02-09T08:11:24.975Z,60.40
2023-02-09T08:13:54.000Z,60.40
2023-02-09T08:16:26.312Z,60.30
2023-02-09T08:19:02.019Z,60.40
2023-02-09T08:21:36.527Z,60.30
2023-02-09T08:24:05.649Z,60.40
2023-02-09T08:26:32.486Z,60.40
2023-02-09T08:28:59.732Z,60.30
2023-02-09T08:31:26.684Z,60.30
2023-02-09T08:33:54.549Z,60.30
2023-02-09T08:36:21.602Z,60.40
2023-02-09T08:38:48.482Z,60.40
2023-02-09T08:41:16.734Z,60.60
2023-02-09T08:43:51.690Z,60.70
2023-02-09T08:46:19.418Z,60.60
2023-02-09T08:48:49.709Z,61.20
2023-02-09T08:51:17.645Z,60.20
2023-02-09T08:53:52.129Z,60.10
2023-02-09T08:56:22.040Z,59.50
2023-02-09T08:58:50.016Z,59.30
2023-02-09T09:01:16.867Z,59.10
2023-02-09T09:03:44.242Z,59.00
2023-02-09T09:06:12.244Z,59.00
2023-02-09T09:08:39.882Z,59.00
2023-02-09T09:11:13.225Z,58.90
2023-02-09T09:13:41.464Z,58.70
2023-02-09T09:16:19.927Z,58.60
2023-02-09T09:18:46.813Z,58.50
2023-02-09T09:21:18.429Z,58.60
2023-02-09T09:23:46.413Z,58.60
2023-02-09T09:26:13.620Z,58.70
2023-02-09T09:28:40.444Z,58.60
2023-02-09T09:31:12.930Z,58.70
2023-02-09T09:33:41.802Z,58.80
2023-02-09T09:36:11.847Z,58.80
2023-02-09T09:38:39.916Z,58.80
2023-02-09T09:41:29.901Z,58.90
2023-02-09T09:43:57.130Z,59.10
2023-02-09T09:46:33.811Z,59.20
2023-02-09T09:49:03.002Z,59.20
2023-02-09T09:51:44.102Z,59.40
2023-02-09T09:54:21.424Z,59.50
2023-02-09T09:56:48.683Z,59.50
2023-02-09T09:59:22.114Z,59.50
2023-02-09T10:01:54.028Z,59.50
2023-02-09T10:04:21.119Z,59.40
2023-02-09T10:06:59.195Z,59.30
2023-02-09T10:09:28.746Z,59.30
2023-02-09T10:12:08.250Z,59.40
2023-02-09T10:14:35.008Z,59.40
2023-02-09T10:17:01.861Z,59.50
2023-02-09T10:19:32.724Z,59.50
2023-02-09T10:21:59.521Z,59.50
2023-02-09T10:24:29.630Z,59.50
2023-02-09T10:27:15.470Z,59.40
2023-02-09T10:29:42.685Z,59.50
2023-02-09T10:32:29.190Z,59.60
2023-02-09T10:34:58.057Z,59.60
2023-02-09T10:37:33.719Z,59.50
2023-02-09T10:40:12.943Z,59.50
2023-02-09T10:42:51.510Z,59.50
2023-02-09T10:45:29.060Z,59.10
2023-02-09T10:48:13.964Z,59.30
2023-02-09T10:51:08.142Z,59.30
2023-02-09T10:53:36.459Z,59.50
2023-02-09T10:56:05.372Z,57.00
2023-02-09T10:58:34.782Z,58.20
2023-02-09T11:01:06.378Z,58.40
2023-02-09T11:03:33.366Z,58.50
2023-02-09T11:06:23.750Z,58.50
2023-02-09T11:08:56.579Z,58.40
2023-02-09T11:11:35.864Z,58.60
2023-02-09T11:14:03.457Z,58.60
2023-02-09T11:17:01.090Z,58.30
2023-02-09T11:19:27.752Z,58.40
2023-02-09T11:21:57.480Z,58.40
2023-02-09T11:24:42.223Z,58.60
2023-02-09T11:27:43.329Z,58.70
2023-02-09T11:30:28.252Z,58.80
2023-02-09T11:33:10.855Z,58.80
2023-02-09T11:35:53.604Z,58.90
2023-02-09T11:38:33.458Z,56.10
2023-02-09T11:41:22.678Z,58.10
2023-02-09T11:43:51.725Z,57.70
2023-02-09T11:46:23.875Z,57.90
2023-02-09T11:49:13.304Z,58.20
2023-02-09T11:51:46.782Z,58.30
2023-02-09T11:54:24.521Z,58.40
2023-02-09T11:56:56.199Z,58.50
2023-02-09T11:59:36.718Z,58.60
2023-02-09T12:02:09.913Z,58.60
2023-02-09T12:04:54.160Z,58.70
2023-02-09T12:07:40.403Z,58.70
2023-02-09T12:10:26.398Z,58.60
2023-02-09T12:13:08.046Z,58.20
2023-02-09T12:15:53.086Z,58.60
2023-02-09T12:18:24.376Z,58.80
2023-02-09T12:20:56.774Z,58.80
2023-02-09T12:23:46.190Z,58.90
2023-02-09T12:26:15.854Z,59.10
2023-02-09T12:29:03.788Z,59.10
2023-02-09T12:31:53.855Z,59.10
2023-02-09T12:34:40.703Z,59.10
2023-02-09T12:37:13.713Z,59.20
2023-02-09T12:40:03.362Z,59.10
2023-02-09T12:43:11.192Z,59.10
2023-02-09T12:45:43.054Z,59.20
2023-02-09T12:48:09.770Z,59.20
2023-02-09T12:50:42.823Z,59.10
2023-02-09T12:53:24.728Z,59.20
2023-02-09T12:56:12.603Z,59.30
2023-02-09T12:58:45.506Z,59.40
2023-02-09T13:01:14.220Z,59.50
2023-02-09T13:03:56.390Z,59.50
2023-02-09T13:06:40.591Z,59.60
2023-02-09T13:09:13.528Z,59.70
2023-02-09T13:12:22.482Z,59.80
2023-02-09T13:14:51.010Z,59.70
2023-02-09T13:17:41.828Z,60.00
2023-02-09T13:20:38.572Z,59.80
2023-02-09T13:23:49.651Z,59.80
2023-02-09T13:26:21.760Z,60.00
2023-02-09T13:28:49.182Z,60.00
2023-02-09T13:31:42.676Z,60.30
2023-02-09T13:34:39.921Z,60.20
2023-02-09T13:37:16.394Z,60.20
2023-02-09T13:39:44.235Z,60.30
2023-02-09T13:42:21.184Z,60.30
2023-02-09T13:44:52.458Z,60.60
2023-02-09T13:47:19.552Z,60.60
2023-02-09T13:49:59.908Z,60.60
2023-02-09T13:52:32.438Z,60.60
2023-02-09T13:55:14.638Z,60.60
2023-02-09T13:57:46.925Z,60.70
2023-02-09T14:00:22.165Z,60.90
2023-02-09T14:03:01.936Z,60.90
2023-02-09T14:05:40.228Z,61.00
2023-02-09T14:08:08.720Z,61.00
2023-02-09T14:10:36.109Z,61.10
2023-02-09T14:13:07.818Z,61.00
2023-02-09T14:16:04.484Z,61.00
2023-02-09T14:18:45.742Z,61.10
2023-02-09T14:21:17.992Z,61.20
2023-02-09T14:23:59.883Z,61.20
2023-02-09T14:26:29.167Z,61.20
2023-02-09T14:29:17.615Z,61.20
2023-02-09T14:31:55.752Z,61.20
2023-02-09T14:34:25.353Z,61.20
2023-02-09T14:36:55.383Z,61.20
2023-02-09T14:39:22.778Z,61.30
2023-02-09T14:42:09.437Z,61.50
2023-02-09T14:44:53.351Z,61.40
2023-02-09T14:47:39.349Z,61.40
2023-02-09T14:50:10.304Z,61.60
2023-02-09T14:52:39.770Z,61.70
2023-02-09T14:55:17.623Z,61.60
2023-02-09T14:57:44.376Z,61.70
2023-02-09T15:00:17.429Z,61.70
2023-02-09T15:02:45.510Z,61.90
2023-02-09T15:05:12.835Z,61.70
2023-02-09T15:07:43.283Z,61.70
2023-02-09T15:10:38.252Z,61.90
2023-02-09T15:13:05.563Z,61.90
2023-02-09T15:15:33.428Z,62.00
2023-02-09T15:18:00.613Z,62.10
2023-02-09T15:20:29.195Z,62.10
2023-02-09T15:22:56.412Z,62.20
2023-02-09T15:25:24.654Z,62.30
2023-02-09T15:27:56.158Z,62.40
2023-02-09T15:30:29.405Z,62.40
2023-02-09T15:32:56.440Z,62.50
2023-02-09T15:35:25.368Z,62.50
2023-02-09T15:38:01.194Z,62.60
2023-02-09T15:40:56.684Z,62.60
2023-02-09T15:43:42.877Z,62.70
2023-02-09T15:46:28.704Z,62.80
2023-02-09T15:48:58.788Z,62.90
2023-02-09T15:51:28.558Z,62.80
2023-02-09T15:53:57.609Z,62.90
2023-02-09T15:56:24.461Z,63.00
2023-02-09T15:58:53.351Z,63.10
2023-02-09T16:01:20.898Z,63.10
2023-02-09T16:03:47.777Z,63.30
2023-02-09T16:06:21.404Z,63.30
2023-02-09T16:08:50.650Z,63.50
2023-02-09T16:11:27.324Z,63.50
2023-02-09T16:13:57.191Z,63.60
2023-02-09T16:16:25.468Z,63.60
2023-02-09T16:18:52.228Z,63.70
2023-02-09T16:21:33.730Z,63.80
2023-02-09T16:24:03.444Z,63.90
2023-02-09T16:26:30.897Z,63.90
2023-02-09T16:28:57.988Z,63.90
2023-02-09T16:31:25.575Z,63.80
2023-02-09T16:33:52.653Z,64.00
2023-02-09T16:36:22.202Z,64.10
2023-02-09T16:38:49.995Z,64.20
2023-02-09T16:41:37.545Z,64.20
2023-02-09T16:44:25.084Z,64.30
2023-02-09T16:46:54.874Z,64.30
2023-02-09T16:49:33.526Z,64.30
2023-02-09T16:52:16.920Z,64.40
2023-02-09T16:54:50.127Z,64.50
2023-02-09T16:57:19.519Z,64.50
2023-02-09T16:59:47.042Z,64.60
2023-02-09T17:02:38.568Z,64.70
2023-02-09T17:05:25.349Z,64.80
2023-02-09T17:07:59.284Z,64.90
2023-02-09T17:10:32.760Z,64.90
2023-02-09T17:13:04.710Z,65.00
2023-02-09T17:15:39.865Z,65.00
2023-02-09T17:18:09.171Z,65.10
2023-02-09T17:20:43.953Z,65.10
2023-02-09T17:23:18.334Z,65.60
2023-02-09T17:25:46.679Z,65.30
2023-02-09T17:28:14.666Z,65.30
2023-02-09T17:30:42.710Z,65.40
2023-02-09T17:33:17.000Z,65.40
2023-02-09T17:36:17.551Z,65.60
2023-02-09T17:38:35.735Z,65.60
2023-02-09T17:41:09.477Z,65.70
2023-02-09T17:43:36.202Z,65.80
2023-02-09T17:46:05.287Z,65.80
2023-02-09T17:48:32.278Z,65.90
2023-02-09T17:51:00.560Z,65.90
2023-02-09T17:53:32.229Z,66.00
2023-02-09T17:55:59.155Z,66.10
2023-02-09T17:58:26.225Z,66.10
2023-02-09T18:00:53.434Z,66.20
2023-02-09T18:03:22.033Z,66.20
2023-02-09T18:06:01.833Z,66.30
2023-02-09T18:08:36.277Z,66.40
2023-02-09T18:11:03.148Z,66.40
2023-02-09T18:13:29.916Z,66.50
2023-02-09T18:15:56.706Z,66.50
2023-02-09T18:18:24.456Z,66.60
2023-02-09T18:20:51.542Z,66.70
2023-02-09T18:23:18.486Z,66.80
2023-02-09T18:25:47.595Z,66.90
2023-02-09T18:28:15.365Z,67.00
2023-02-09T18:30:43.235Z,67.00
2023-02-09T18:33:10.552Z,67.10
2023-02-09T18:35:39.895Z,67.20
2023-02-09T18:38:09.753Z,67.30
2023-02-09T18:40:37.588Z,67.40
2023-02-09T18:43:06.053Z,67.50
2023-02-09T18:45:33.572Z,67.50
2023-02-09T18:48:00.950Z,67.60
2023-02-09T18:50:30.412Z,67.60
2023-02-09T18:53:03.476Z,67.80
2023-02-09T18:55:32.525Z,67.80
2023-02-09T18:58:01.797Z,67.90
2023-02-09T19:00:29.051Z,67.90
2023-02-09T19:02:57.805Z,68.00
2023-02-09T19:05:26.613Z,68.00
2023-02-09T19:07:55.457Z,68.20
2023-02-09T19:10:23.261Z,68.20
2023-02-09T19:12:50.139Z,68.30
2023-02-09T19:15:18.024Z,68.20
2023-02-09T19:17:46.004Z,68.40
2023-02-09T19:20:17.515Z,68.50
2023-02-09T19:22:44.602Z,68.50
2023-02-09T19:25:11.391Z,68.50
2023-02-09T19:27:38.149Z,69.40
2023-02-09T19:30:05.322Z,68.70
2023-02-09T19:32:32.090Z,68.70
2023-02-09T19:34:58.923Z,68.70
2023-02-09T19:37:26.137Z,68.80
2023-02-09T19:39:53.363Z,68.90
2023-02-09T19:42:21.679Z,69.00
2023-02-09T19:44:49.332Z,69.00
2023-02-09T19:47:16.369Z,69.10
2023-02-09T19:49:45.362Z,69.10
2023-02-09T19:52:12.242Z,69.20
2023-02-09T19:54:39.110Z,69.30
2023-02-09T19:57:06.357Z,69.40
2023-02-09T19:59:33.506Z,69.60
2023-02-09T20:02:00.429Z,69.50
2023-02-09T20:04:27.417Z,69.60
2023-02-09T20:06:57.360Z,69.70
2023-02-09T20:09:24.148Z,69.80
2023-02-09T20:11:51.096Z,69.70
2023-02-09T20:14:17.898Z,69.90
2023-02-09T20:16:44.674Z,70.00
2023-02-09T20:19:11.537Z,70.10
2023-02-09T20:21:38.506Z,70.20
2023-02-09T20:24:09.573Z,70.20
2023-02-09T20:26:36.780Z,70.30
2023-02-09T20:29:07.231Z,70.30
2023-02-09T20:31:38.081Z,70.40
2023-02-09T20:34:07.428Z,71.20
2023-02-09T20:36:38.364Z,70.50
2023-02-09T20:39:10.157Z,70.50
2023-02-09T20:41:36.983Z,70.60
2023-02-09T20:44:22.482Z,70.70
2023-02-09T20:46:58.032Z,70.80
2023-02-09T20:49:35.860Z,70.80
2023-02-09T20:52:02.755Z,70.80
2023-02-09T20:54:31.884Z,70.90
2023-02-09T20:57:02.535Z,70.90
2023-02-09T20:59:31.012Z,71.00
2023-02-09T21:02:01.137Z,71.00
2023-02-09T21:04:30.135Z,71.10
2023-02-09T21:07:00.501Z,71.10
2023-02-09T21:09:28.332Z,71.20
2023-02-09T21:11:56.125Z,71.20
2023-02-09T21:14:27.864Z,71.30
2023-02-09T21:17:06.339Z,71.40
2023-02-09T21:19:36.149Z,71.40
2023-02-09T21:22:03.015Z,71.50
2023-02-09T21:24:32.676Z,71.50
2023-02-09T21:27:00.839Z,71.50
2023-02-09T21:29:29.176Z,71.60
2023-02-09T21:31:56.694Z,71.70
2023-02-09T21:34:23.508Z,71.80
2023-02-09T21:36:50.342Z,71.90
2023-02-09T21:39:17.114Z,71.80
2023-02-09T21:42:02.277Z,71.90
2023-02-09T21:44:32.313Z,72.00
2023-02-09T21:47:00.531Z,72.90
2023-02-09T21:49:27.688Z,72.20
2023-02-09T21:51:58.224Z,72.10
2023-02-09T21:54:26.223Z,72.20
2023-02-09T21:56:54.153Z,72.20
2023-02-09T21:59:23.397Z,72.20
2023-02-09T22:01:50.178Z,72.30
2023-02-09T22:04:17.039Z,72.30
2023-02-09T22:06:45.207Z,72.40
2023-02-09T22:09:14.445Z,72.40
2023-02-09T22:11:41.353Z,72.40
2023-02-09T22:14:08.433Z,72.50
2023-02-09T22:16:35.275Z,72.60
2023-02-09T22:19:01.993Z,73.40
2023-02-09T22:21:28.727Z,72.60
2023-02-09T22:23:55.739Z,72.70
2023-02-09T22:26:25.410Z,72.70
2023-02-09T22:28:52.432Z,72.90
2023-02-09T22:31:20.787Z,72.80
2023-02-09T22:33:48.001Z,72.90
2023-02-09T22:36:17.479Z,73.00
2023-02-09T22:38:44.934Z,73.10
2023-02-09T22:41:23.722Z,73.00
2023-02-09T22:44:00.120Z,73.10
2023-02-09T22:46:30.597Z,73.20
2023-02-09T22:49:00.017Z,73.10
2023-02-09T22:51:29.365Z,73.20
2023-02-09T22:53:57.399Z,73.30
2023-02-09T22:56:24.486Z,73.40
2023-02-09T22:58:53.950Z,73.40
2023-02-09T23:01:21.709Z,73.40
2023-02-09T23:03:49.008Z,73.50
2023-02-09T23:06:19.908Z,73.50
2023-02-09T23:08:47.344Z,73.60
2023-02-09T23:11:16.735Z,73.60
2023-02-09T23:13:47.117Z,73.70
2023-02-09T23:16:22.996Z,73.70
2023-02-09T23:19:03.486Z,73.90
2023-02-09T23:21:35.535Z,73.90
2023-02-09T23:24:05.237Z,73.80
2023-02-09T23:26:32.529Z,73.80
2023-02-09T23:29:04.684Z,73.90
2023-02-09T23:31:31.818Z,74.00
2023-02-09T23:33:59.099Z,73.90
2023-02-09T23:36:29.127Z,73.90
2023-02-09T23:39:02.016Z,74.10
2023-02-09T23:41:29.186Z,74.20
2023-02-09T23:43:56.736Z,74.10
2023-02-09T23:46:28.852Z,74.10
2023-02-09T23:48:56.696Z,74.30
2023-02-09T23:51:26.721Z,74.30
2023-02-09T23:53:55.006Z,74.20
2023-02-09T23:56:22.712Z,74.30
2023-02-09T23:58:51.776Z,74.40
